sensor_id;sensor_type;location;lat;lon;timestamp;temperature;humidity
5792;DHT22;2922;53.482;10.006;2023-05-10T00:01:07;13.60;73.10
5792;DHT22;2922;53.482;10.006;2023-05-10T00:03:33;13.50;73.80
5792;DHT22;2922;53.482;10.006;2023-05-10T00:05:58;13.50;76.70
5792;DHT22;2922;53.482;10.006;2023-05-10T00:08:24;13.50;75.90
5792;DHT22;2922;53.482;10.006;2023-05-10T00:10:49;13.50;78.70
5792;DHT22;2922;53.482;10.006;2023-05-10T00:13:15;13.40;80.00
5792;DHT22;2922;53.482;10.006;2023-05-10T00:15:41;13.40;81.20
5792;DHT22;2922;53.482;10.006;2023-05-10T00:18:06;13.40;83.00
5792;DHT22;2922;53.482;10.006;2023-05-10T00:20:32;13.40;84.10
5792;DHT22;2922;53.482;10.006;2023-05-10T00:22:58;13.30;84.70
5792;DHT22;2922;53.482;10.006;2023-05-10T00:25:23;13.30;85.60
5792;DHT22;2922;53.482;10.006;2023-05-10T00:27:49;13.30;88.20
5792;DHT22;2922;53.482;10.006;2023-05-10T00:30:15;13.20;91.10
5792;DHT22;2922;53.482;10.006;2023-05-10T00:32:40;13.20;91.40
5792;DHT22;2922;53.482;10.006;2023-05-10T00:35:06;13.20;92.30
5792;DHT22;2922;53.482;10.006;2023-05-10T00:37:32;13.20;92.60
5792;DHT22;2922;53.482;10.006;2023-05-10T00:39:57;13.10;93.20
5792;DHT22;2922;53.482;10.006;2023-05-10T00:42:23;13.10;94.60
5792;DHT22;2922;53.482;10.006;2023-05-10T00:44:48;13.10;96.20
5792;DHT22;2922;53.482;10.006;2023-05-10T00:47:15;13.00;96.30
5792;DHT22;2922;53.482;10.006;2023-05-10T00:49:41;13.00;97.60
5792;DHT22;2922;53.482;10.006;2023-05-10T00:52:07;13.00;99.60
5792;DHT22;2922;53.482;10.006;2023-05-10T00:54:33;12.90;99.90
5792;DHT22;2922;53.482;10.006;2023-05-10T00:56:59;12.90;99.90
5792;DHT22;2922;53.482;10.006;2023-05-10T00:59:24;12.80;99.90
5792;DHT22;2922;53.482;10.006;2023-05-10T01:01:50;12.80;99.90
5792;DHT22;2922;53.482;10.006;2023-05-10T01:04:17;12.80;99.90
5792;DHT22;2922;53.482;10.006;2023-05-10T01:06:42;12.70;99.90
5792;DHT22;2922;53.482;10.006;2023-05-10T01:09:09;12.70;99.90
5792;DHT22;2922;53.482;10.006;2023-05-10T01:11:35;12.60;99.90
5792;DHT22;2922;53.482;10.006;2023-05-10T01:14:02;12.60;99.90
5792;DHT22;2922;53.482;10.006;2023-05-10T01:16:29;12.50;99.90
5792;DHT22;2922;53.482;10.006;2023-05-10T01:18:57;12.50;99.90
5792;DHT22;2922;53.482;10.006;2023-05-10T01:21:41;12.40;99.90
5792;DHT22;2922;53.482;10.006;2023-05-10T01:24:28;12.40;99.90
5792;DHT22;2922;53.482;10.006;2023-05-10T01:27:17;12.40;99.90
5792;DHT22;2922;53.482;10.006;2023-05-10T01:29:52;12.40;99.90
5792;DHT22;2922;53.482;10.006;2023-05-10T01:37:47;12.40;99.90
5792;DHT22;2922;53.482;10.006;2023-05-10T01:40:26;12.30;99.90
5792;DHT22;2922;53.482;10.006;2023-05-10T01:43:01;12.30;99.90
5792;DHT22;2922;53.482;10.006;2023-05-10T01:48:08;12.30;99.90
5792;DHT22;2922;53.482;10.006;2023-05-10T01:50:36;12.30;99.90
5792;DHT22;2922;53.482;10.006;2023-05-10T01:53:04;12.30;99.90
5792;DHT22;2922;53.482;10.006;2023-05-10T01:55:34;12.30;99.90
5792;DHT22;2922;53.482;10.006;2023-05-10T01:58:07;12.20;99.90
5792;DHT22;2922;53.482;10.006;2023-05-10T02:00:34;12.20;99.90
5792;DHT22;2922;53.482;10.006;2023-05-10T02:03:05;12.20;99.90
5792;DHT22;2922;53.482;10.006;2023-05-10T02:05:32;12.20;99.90
5792;DHT22;2922;53.482;10.006;2023-05-10T02:07:59;12.20;99.90
5792;DHT22;2922;53.482;10.006;2023-05-10T02:10:27;12.10;99.90
5792;DHT22;2922;53.482;10.006;2023-05-10T02:12:53;12.10;99.90
5792;DHT22;2922;53.482;10.006;2023-05-10T02:15:23;12.10;99.90
5792;DHT22;2922;53.482;10.006;2023-05-10T02:17:49;12.10;99.90
5792;DHT22;2922;53.482;10.006;2023-05-10T02:20:16;12.10;99.90
5792;DHT22;2922;53.482;10.006;2023-05-10T02:22:42;12.10;99.90
5792;DHT22;2922;53.482;10.006;2023-05-10T02:25:11;12.00;99.90
5792;DHT22;2922;53.482;10.006;2023-05-10T02:27:38;12.00;99.90
5792;DHT22;2922;53.482;10.006;2023-05-10T02:30:07;12.00;99.90
5792;DHT22;2922;53.482;10.006;2023-05-10T02:32:33;12.00;99.90
5792;DHT22;2922;53.482;10.006;2023-05-10T02:35:00;12.00;99.90
5792;DHT22;2922;53.482;10.006;2023-05-10T02:37:26;11.90;99.90
5792;DHT22;2922;53.482;10.006;2023-05-10T02:39:55;11.90;99.90
5792;DHT22;2922;53.482;10.006;2023-05-10T02:42:26;11.90;99.90
5792;DHT22;2922;53.482;10.006;2023-05-10T02:44:55;11.90;99.90
5792;DHT22;2922;53.482;10.006;2023-05-10T02:47:21;11.80;99.90
5792;DHT22;2922;53.482;10.006;2023-05-10T02:49:47;11.80;99.90
5792;DHT22;2922;53.482;10.006;2023-05-10T02:52:16;11.80;99.90
5792;DHT22;2922;53.482;10.006;2023-05-10T02:54:46;11.80;99.90
5792;DHT22;2922;53.482;10.006;2023-05-10T02:57:16;11.70;99.90
5792;DHT22;2922;53.482;10.006;2023-05-10T02:59:44;11.70;99.90
5792;DHT22;2922;53.482;10.006;2023-05-10T03:02:14;11.70;99.90
5792;DHT22;2922;53.482;10.006;2023-05-10T03:04:40;11.70;99.90
5792;DHT22;2922;53.482;10.006;2023-05-10T03:07:05;11.70;99.90
5792;DHT22;2922;53.482;10.006;2023-05-10T03:09:32;11.70;99.90
5792;DHT22;2922;53.482;10.006;2023-05-10T03:12:23;11.70;99.90
5792;DHT22;2922;53.482;10.006;2023-05-10T03:15:07;11.70;99.90
5792;DHT22;2922;53.482;10.006;2023-05-10T03:18:01;11.70;99.90
5792;DHT22;2922;53.482;10.006;2023-05-10T03:20:42;11.60;99.90
5792;DHT22;2922;53.482;10.006;2023-05-10T03:25:40;11.70;99.90
5792;DHT22;2922;53.482;10.006;2023-05-10T03:28:06;11.70;99.90
5792;DHT22;2922;53.482;10.006;2023-05-10T03:30:33;11.70;99.90
5792;DHT22;2922;53.482;10.006;2023-05-10T03:33:04;11.70;99.90
5792;DHT22;2922;53.482;10.006;2023-05-10T03:35:31;11.70;99.90
5792;DHT22;2922;53.482;10.006;2023-05-10T03:37:57;11.70;99.90
5792;DHT22;2922;53.482;10.006;2023-05-10T03:40:23;11.70;99.90
5792;DHT22;2922;53.482;10.006;2023-05-10T03:42:49;11.70;99.90
5792;DHT22;2922;53.482;10.006;2023-05-10T03:45:14;11.70;99.90
5792;DHT22;2922;53.482;10.006;2023-05-10T03:47:40;11.70;99.90
5792;DHT22;2922;53.482;10.006;2023-05-10T03:50:06;11.70;99.90
5792;DHT22;2922;53.482;10.006;2023-05-10T03:52:32;11.70;99.90
5792;DHT22;2922;53.482;10.006;2023-05-10T03:54:57;11.70;99.90
5792;DHT22;2922;53.482;10.006;2023-05-10T03:57:23;11.70;99.90
5792;DHT22;2922;53.482;10.006;2023-05-10T03:59:49;11.70;99.90
5792;DHT22;2922;53.482;10.006;2023-05-10T04:02:14;11.70;99.90
5792;DHT22;2922;53.482;10.006;2023-05-10T04:04:40;11.70;99.90
5792;DHT22;2922;53.482;10.006;2023-05-10T04:07:05;11.70;99.90
5792;DHT22;2922;53.482;10.006;2023-05-10T04:09:31;11.70;99.90
5792;DHT22;2922;53.482;10.006;2023-05-10T04:11:59;11.70;99.90
5792;DHT22;2922;53.482;10.006;2023-05-10T04:14:25;11.70;99.90
5792;DHT22;2922;53.482;10.006;2023-05-10T04:16:51;11.70;99.90
5792;DHT22;2922;53.482;10.006;2023-05-10T04:19:16;11.80;99.90
5792;DHT22;2922;53.482;10.006;2023-05-10T04:21:42;11.80;99.90
5792;DHT22;2922;53.482;10.006;2023-05-10T04:24:07;11.80;99.90
5792;DHT22;2922;53.482;10.006;2023-05-10T04:26:33;11.80;99.90
5792;DHT22;2922;53.482;10.006;2023-05-10T04:28:58;11.80;99.90
5792;DHT22;2922;53.482;10.006;2023-05-10T04:31:24;11.80;99.90
5792;DHT22;2922;53.482;10.006;2023-05-10T04:33:49;11.90;99.90
5792;DHT22;2922;53.482;10.006;2023-05-10T04:36:15;11.90;99.90
5792;DHT22;2922;53.482;10.006;2023-05-10T04:38:41;11.90;99.90
5792;DHT22;2922;53.482;10.006;2023-05-10T04:41:09;11.90;99.90
5792;DHT22;2922;53.482;10.006;2023-05-10T04:43:35;11.90;99.90
5792;DHT22;2922;53.482;10.006;2023-05-10T04:46:02;12.00;99.90
5792;DHT22;2922;53.482;10.006;2023-05-10T04:48:27;12.00;99.90
5792;DHT22;2922;53.482;10.006;2023-05-10T04:50:53;12.00;99.90
5792;DHT22;2922;53.482;10.006;2023-05-10T04:53:19;12.00;99.90
5792;DHT22;2922;53.482;10.006;2023-05-10T04:55:44;12.00;99.90
5792;DHT22;2922;53.482;10.006;2023-05-10T04:58:10;12.10;99.90
5792;DHT22;2922;53.482;10.006;2023-05-10T05:00:36;12.10;99.90
5792;DHT22;2922;53.482;10.006;2023-05-10T05:03:01;12.20;99.90
5792;DHT22;2922;53.482;10.006;2023-05-10T05:05:27;12.30;99.90
5792;DHT22;2922;53.482;10.006;2023-05-10T05:07:52;12.30;99.90
5792;DHT22;2922;53.482;10.006;2023-05-10T05:10:18;12.40;99.90
5792;DHT22;2922;53.482;10.006;2023-05-10T05:12:43;12.40;99.90
5792;DHT22;2922;53.482;10.006;2023-05-10T05:15:09;12.50;99.90
5792;DHT22;2922;53.482;10.006;2023-05-10T05:17:36;12.50;99.90
5792;DHT22;2922;53.482;10.006;2023-05-10T05:20:01;12.50;99.90
5792;DHT22;2922;53.482;10.006;2023-05-10T05:22:27;12.60;99.90
5792;DHT22;2922;53.482;10.006;2023-05-10T05:24:57;12.70;99.90
5792;DHT22;2922;53.482;10.006;2023-05-10T05:27:24;12.70;99.90
5792;DHT22;2922;53.482;10.006;2023-05-10T05:29:53;12.80;99.90
5792;DHT22;2922;53.482;10.006;2023-05-10T05:32:18;12.90;99.90
5792;DHT22;2922;53.482;10.006;2023-05-10T05:34:45;12.90;99.90
5792;DHT22;2922;53.482;10.006;2023-05-10T05:37:19;13.00;99.90
5792;DHT22;2922;53.482;10.006;2023-05-10T05:39:45;13.10;99.90
5792;DHT22;2922;53.482;10.006;2023-05-10T05:42:11;13.20;99.90
5792;DHT22;2922;53.482;10.006;2023-05-10T05:44:38;13.40;99.90
5792;DHT22;2922;53.482;10.006;2023-05-10T05:47:03;13.40;99.90
5792;DHT22;2922;53.482;10.006;2023-05-10T05:49:29;13.50;99.90
5792;DHT22;2922;53.482;10.006;2023-05-10T05:51:59;13.60;99.90
5792;DHT22;2922;53.482;10.006;2023-05-10T05:54:24;13.80;99.90
5792;DHT22;2922;53.482;10.006;2023-05-10T05:56:50;13.90;99.90
5792;DHT22;2922;53.482;10.006;2023-05-10T05:59:16;14.00;99.90
5792;DHT22;2922;53.482;10.006;2023-05-10T06:01:41;14.10;99.90
5792;DHT22;2922;53.482;10.006;2023-05-10T06:04:07;14.20;99.90
5792;DHT22;2922;53.482;10.006;2023-05-10T06:06:32;14.30;99.90
5792;DHT22;2922;53.482;10.006;2023-05-10T06:08:58;14.30;99.90
5792;DHT22;2922;53.482;10.006;2023-05-10T06:11:23;14.40;99.90
5792;DHT22;2922;53.482;10.006;2023-05-10T06:13:50;14.50;99.90
5792;DHT22;2922;53.482;10.006;2023-05-10T06:16:15;14.70;99.90
5792;DHT22;2922;53.482;10.006;2023-05-10T06:18:41;14.80;99.90
5792;DHT22;2922;53.482;10.006;2023-05-10T06:21:06;14.90;99.90
5792;DHT22;2922;53.482;10.006;2023-05-10T06:23:32;14.90;99.90
5792;DHT22;2922;53.482;10.006;2023-05-10T06:25:57;15.00;99.90
5792;DHT22;2922;53.482;10.006;2023-05-10T06:28:23;15.00;99.90
5792;DHT22;2922;53.482;10.006;2023-05-10T06:30:49;15.00;99.90
5792;DHT22;2922;53.482;10.006;2023-05-10T06:33:14;15.00;99.90
5792;DHT22;2922;53.482;10.006;2023-05-10T06:35:41;15.10;99.90
5792;DHT22;2922;53.482;10.006;2023-05-10T06:38:07;15.10;99.90
5792;DHT22;2922;53.482;10.006;2023-05-10T06:40:32;15.20;99.90
5792;DHT22;2922;53.482;10.006;2023-05-10T06:42:58;15.30;99.90
5792;DHT22;2922;53.482;10.006;2023-05-10T06:45:23;15.40;99.90
5792;DHT22;2922;53.482;10.006;2023-05-10T06:47:49;15.60;99.90
5792;DHT22;2922;53.482;10.006;2023-05-10T06:50:14;15.80;99.90
5792;DHT22;2922;53.482;10.006;2023-05-10T06:52:40;15.80;99.90
5792;DHT22;2922;53.482;10.006;2023-05-10T06:55:06;15.80;99.90
5792;DHT22;2922;53.482;10.006;2023-05-10T06:57:32;16.00;99.90
5792;DHT22;2922;53.482;10.006;2023-05-10T07:00:01;16.20;99.90
5792;DHT22;2922;53.482;10.006;2023-05-10T07:02:29;16.40;99.90
5792;DHT22;2922;53.482;10.006;2023-05-10T07:04:54;16.60;99.90
5792;DHT22;2922;53.482;10.006;2023-05-10T07:07:20;16.70;99.90
5792;DHT22;2922;53.482;10.006;2023-05-10T07:09:46;16.90;99.90
5792;DHT22;2922;53.482;10.006;2023-05-10T07:12:11;16.90;99.90
5792;DHT22;2922;53.482;10.006;2023-05-10T07:14:37;16.90;99.90
5792;DHT22;2922;53.482;10.006;2023-05-10T07:17:02;16.90;99.90
5792;DHT22;2922;53.482;10.006;2023-05-10T07:19:28;16.80;99.90
5792;DHT22;2922;53.482;10.006;2023-05-10T07:21:55;16.90;99.90
5792;DHT22;2922;53.482;10.006;2023-05-10T07:24:20;17.00;99.90
5792;DHT22;2922;53.482;10.006;2023-05-10T07:26:46;17.10;99.90
5792;DHT22;2922;53.482;10.006;2023-05-10T07:29:12;17.10;99.90
5792;DHT22;2922;53.482;10.006;2023-05-10T07:31:37;17.20;99.90
5792;DHT22;2922;53.482;10.006;2023-05-10T07:34:03;17.20;99.90
5792;DHT22;2922;53.482;10.006;2023-05-10T07:36:28;17.20;99.90
5792;DHT22;2922;53.482;10.006;2023-05-10T07:38:54;17.20;99.90
5792;DHT22;2922;53.482;10.006;2023-05-10T07:41:20;17.30;99.90
5792;DHT22;2922;53.482;10.006;2023-05-10T07:43:46;17.20;99.90
5792;DHT22;2922;53.482;10.006;2023-05-10T07:46:11;17.30;99.90
5792;DHT22;2922;53.482;10.006;2023-05-10T07:48:37;17.30;99.90
5792;DHT22;2922;53.482;10.006;2023-05-10T07:51:03;17.30;99.90
5792;DHT22;2922;53.482;10.006;2023-05-10T07:53:28;17.20;99.90
5792;DHT22;2922;53.482;10.006;2023-05-10T07:55:57;17.30;99.90
5792;DHT22;2922;53.482;10.006;2023-05-10T07:58:26;17.30;99.90
5792;DHT22;2922;53.482;10.006;2023-05-10T08:00:53;17.30;99.90
5792;DHT22;2922;53.482;10.006;2023-05-10T08:03:18;17.30;99.40
5792;DHT22;2922;53.482;10.006;2023-05-10T08:05:44;17.30;99.90
5792;DHT22;2922;53.482;10.006;2023-05-10T08:08:09;17.30;99.70
5792;DHT22;2922;53.482;10.006;2023-05-10T08:10:35;17.40;99.90
5792;DHT22;2922;53.482;10.006;2023-05-10T08:13:00;17.40;99.90
5792;DHT22;2922;53.482;10.006;2023-05-10T08:15:26;17.50;99.90
5792;DHT22;2922;53.482;10.006;2023-05-10T08:17:52;17.70;99.90
5792;DHT22;2922;53.482;10.006;2023-05-10T08:20:18;17.70;98.90
5792;DHT22;2922;53.482;10.006;2023-05-10T08:22:45;17.70;99.80
5792;DHT22;2922;53.482;10.006;2023-05-10T08:25:11;17.80;99.90
5792;DHT22;2922;53.482;10.006;2023-05-10T08:27:37;17.90;99.90
5792;DHT22;2922;53.482;10.006;2023-05-10T08:30:02;18.00;99.50
5792;DHT22;2922;53.482;10.006;2023-05-10T08:32:28;18.00;97.10
5792;DHT22;2922;53.482;10.006;2023-05-10T08:34:54;17.90;97.90
5792;DHT22;2922;53.482;10.006;2023-05-10T08:37:20;17.90;96.50
5792;DHT22;2922;53.482;10.006;2023-05-10T08:39:45;17.80;95.90
5792;DHT22;2922;53.482;10.006;2023-05-10T08:42:16;17.60;96.60
5792;DHT22;2922;53.482;10.006;2023-05-10T08:44:43;17.70;98.00
5792;DHT22;2922;53.482;10.006;2023-05-10T08:47:10;17.90;99.00
5792;DHT22;2922;53.482;10.006;2023-05-10T08:49:37;18.10;98.80
5792;DHT22;2922;53.482;10.006;2023-05-10T08:52:04;18.30;99.60
5792;DHT22;2922;53.482;10.006;2023-05-10T08:54:32;18.40;98.90
5792;DHT22;2922;53.482;10.006;2023-05-10T08:56:57;18.50;99.40
5792;DHT22;2922;53.482;10.006;2023-05-10T08:59:23;18.60;99.90
5792;DHT22;2922;53.482;10.006;2023-05-10T09:01:50;18.50;99.90
5792;DHT22;2922;53.482;10.006;2023-05-10T09:04:15;18.60;99.90
5792;DHT22;2922;53.482;10.006;2023-05-10T09:06:41;18.70;99.90
5792;DHT22;2922;53.482;10.006;2023-05-10T09:09:07;18.50;98.80
5792;DHT22;2922;53.482;10.006;2023-05-10T09:11:32;18.30;99.90
5792;DHT22;2922;53.482;10.006;2023-05-10T09:13:58;18.30;99.90
5792;DHT22;2922;53.482;10.006;2023-05-10T09:16:24;18.00;99.90
5792;DHT22;2922;53.482;10.006;2023-05-10T09:18:49;17.90;99.90
5792;DHT22;2922;53.482;10.006;2023-05-10T09:21:15;17.70;99.90
5792;DHT22;2922;53.482;10.006;2023-05-10T09:23:45;17.70;99.90
5792;DHT22;2922;53.482;10.006;2023-05-10T09:26:12;17.60;99.90
5792;DHT22;2922;53.482;10.006;2023-05-10T09:28:54;17.50;99.90
5792;DHT22;2922;53.482;10.006;2023-05-10T09:31:21;17.30;99.90
5792;DHT22;2922;53.482;10.006;2023-05-10T09:33:48;17.00;99.90
5792;DHT22;2922;53.482;10.006;2023-05-10T09:36:14;16.80;99.90
5792;DHT22;2922;53.482;10.006;2023-05-10T09:38:51;16.70;99.90
5792;DHT22;2922;53.482;10.006;2023-05-10T09:41:24;16.70;99.90
5792;DHT22;2922;53.482;10.006;2023-05-10T09:43:55;16.70;99.90
5792;DHT22;2922;53.482;10.006;2023-05-10T09:46:22;16.50;99.90
5792;DHT22;2922;53.482;10.006;2023-05-10T09:48:48;16.40;99.90
5792;DHT22;2922;53.482;10.006;2023-05-10T09:53:46;16.30;99.90
5792;DHT22;2922;53.482;10.006;2023-05-10T09:56:11;16.30;99.90
5792;DHT22;2922;53.482;10.006;2023-05-10T09:58:37;16.10;99.90
5792;DHT22;2922;53.482;10.006;2023-05-10T10:01:11;16.00;99.90
5792;DHT22;2922;53.482;10.006;2023-05-10T10:03:42;15.90;99.90
5792;DHT22;2922;53.482;10.006;2023-05-10T10:06:07;15.80;99.90
5792;DHT22;2922;53.482;10.006;2023-05-10T10:08:34;15.60;99.90
5792;DHT22;2922;53.482;10.006;2023-05-10T10:10:59;15.60;99.90
5792;DHT22;2922;53.482;10.006;2023-05-10T10:13:25;15.50;99.90
5792;DHT22;2922;53.482;10.006;2023-05-10T10:15:52;15.40;99.90
5792;DHT22;2922;53.482;10.006;2023-05-10T10:18:19;15.40;99.90
5792;DHT22;2922;53.482;10.006;2023-05-10T10:20:49;15.30;99.90
5792;DHT22;2922;53.482;10.006;2023-05-10T10:23:15;15.30;99.90
5792;DHT22;2922;53.482;10.006;2023-05-10T10:25:40;15.40;99.90
5792;DHT22;2922;53.482;10.006;2023-05-10T10:28:26;15.40;99.90
5792;DHT22;2922;53.482;10.006;2023-05-10T10:31:02;15.40;99.90
5792;DHT22;2922;53.482;10.006;2023-05-10T10:36:15;15.50;99.90
5792;DHT22;2922;53.482;10.006;2023-05-10T10:41:33;15.50;99.90
5792;DHT22;2922;53.482;10.006;2023-05-10T10:49:49;15.70;99.90
5792;DHT22;2922;53.482;10.006;2023-05-10T10:54:54;15.80;99.90
5792;DHT22;2922;53.482;10.006;2023-05-10T10:57:23;15.60;99.90
5792;DHT22;2922;53.482;10.006;2023-05-10T10:59:48;15.70;99.90
5792;DHT22;2922;53.482;10.006;2023-05-10T11:02:34;15.70;99.90
5792;DHT22;2922;53.482;10.006;2023-05-10T11:10:36;15.90;99.90
5792;DHT22;2922;53.482;10.006;2023-05-10T11:13:04;16.00;99.90
5792;DHT22;2922;53.482;10.006;2023-05-10T11:15:34;15.90;99.90
5792;DHT22;2922;53.482;10.006;2023-05-10T11:18:19;16.00;99.90
5792;DHT22;2922;53.482;10.006;2023-05-10T11:23:18;15.90;99.90
5792;DHT22;2922;53.482;10.006;2023-05-10T11:25:45;16.00;99.90
5792;DHT22;2922;53.482;10.006;2023-05-10T11:28:12;15.90;99.90
5792;DHT22;2922;53.482;10.006;2023-05-10T11:30:39;15.70;99.90
5792;DHT22;2922;53.482;10.006;2023-05-10T11:33:06;15.60;99.90
5792;DHT22;2922;53.482;10.006;2023-05-10T11:35:37;15.40;99.90
5792;DHT22;2922;53.482;10.006;2023-05-10T11:38:09;15.40;99.90
5792;DHT22;2922;53.482;10.006;2023-05-10T11:40:36;15.40;99.90
5792;DHT22;2922;53.482;10.006;2023-05-10T11:43:02;15.40;99.90
5792;DHT22;2922;53.482;10.006;2023-05-10T11:45:29;15.40;99.90
5792;DHT22;2922;53.482;10.006;2023-05-10T11:47:57;15.30;99.90
5792;DHT22;2922;53.482;10.006;2023-05-10T11:50:23;15.40;99.90
5792;DHT22;2922;53.482;10.006;2023-05-10T11:52:55;15.50;99.90
5792;DHT22;2922;53.482;10.006;2023-05-10T11:55:22;15.60;99.90
5792;DHT22;2922;53.482;10.006;2023-05-10T11:57:52;15.70;99.90
5792;DHT22;2922;53.482;10.006;2023-05-10T12:00:18;15.80;99.90
5792;DHT22;2922;53.482;10.006;2023-05-10T12:02:44;15.80;99.90
5792;DHT22;2922;53.482;10.006;2023-05-10T12:05:10;15.80;99.90
5792;DHT22;2922;53.482;10.006;2023-05-10T12:07:36;15.90;99.90
5792;DHT22;2922;53.482;10.006;2023-05-10T12:10:10;15.90;99.90
5792;DHT22;2922;53.482;10.006;2023-05-10T12:12:46;15.90;99.90
5792;DHT22;2922;53.482;10.006;2023-05-10T12:15:22;16.00;99.90
5792;DHT22;2922;53.482;10.006;2023-05-10T12:17:49;16.10;99.90
5792;DHT22;2922;53.482;10.006;2023-05-10T12:20:19;16.10;99.90
5792;DHT22;2922;53.482;10.006;2023-05-10T12:22:54;16.10;99.90
5792;DHT22;2922;53.482;10.006;2023-05-10T12:25:22;16.20;99.90
5792;DHT22;2922;53.482;10.006;2023-05-10T12:27:52;16.20;99.90
5792;DHT22;2922;53.482;10.006;2023-05-10T12:30:25;16.20;99.90
5792;DHT22;2922;53.482;10.006;2023-05-10T12:32:52;16.30;99.90
5792;DHT22;2922;53.482;10.006;2023-05-10T12:35:18;16.30;99.90
5792;DHT22;2922;53.482;10.006;2023-05-10T12:37:48;16.30;99.90
5792;DHT22;2922;53.482;10.006;2023-05-10T12:40:14;16.40;99.90
5792;DHT22;2922;53.482;10.006;2023-05-10T12:42:40;16.40;99.90
5792;DHT22;2922;53.482;10.006;2023-05-10T12:45:07;16.50;99.90
5792;DHT22;2922;53.482;10.006;2023-05-10T12:47:33;16.50;99.90
5792;DHT22;2922;53.482;10.006;2023-05-10T12:50:00;16.60;99.90
5792;DHT22;2922;53.482;10.006;2023-05-10T12:52:26;16.80;99.90
5792;DHT22;2922;53.482;10.006;2023-05-10T12:54:52;16.80;99.90
5792;DHT22;2922;53.482;10.006;2023-05-10T12:57:19;16.90;99.90
5792;DHT22;2922;53.482;10.006;2023-05-10T12:59:45;17.00;99.90
5792;DHT22;2922;53.482;10.006;2023-05-10T13:02:11;17.10;99.90
5792;DHT22;2922;53.482;10.006;2023-05-10T13:04:36;17.10;99.90
5792;DHT22;2922;53.482;10.006;2023-05-10T13:07:06;17.20;99.90
5792;DHT22;2922;53.482;10.006;2023-05-10T13:09:32;17.20;99.90
5792;DHT22;2922;53.482;10.006;2023-05-10T13:11:58;17.40;99.90
5792;DHT22;2922;53.482;10.006;2023-05-10T13:14:24;17.50;99.90
5792;DHT22;2922;53.482;10.006;2023-05-10T13:16:50;17.60;99.90
5792;DHT22;2922;53.482;10.006;2023-05-10T13:19:16;17.60;99.90
5792;DHT22;2922;53.482;10.006;2023-05-10T13:21:42;17.50;99.90
5792;DHT22;2922;53.482;10.006;2023-05-10T13:24:08;17.60;99.90
5792;DHT22;2922;53.482;10.006;2023-05-10T13:26:33;17.60;99.90
5792;DHT22;2922;53.482;10.006;2023-05-10T13:28:59;17.60;99.90
5792;DHT22;2922;53.482;10.006;2023-05-10T13:31:25;17.50;99.90
5792;DHT22;2922;53.482;10.006;2023-05-10T13:33:50;17.40;99.90
5792;DHT22;2922;53.482;10.006;2023-05-10T13:36:16;17.30;99.90
5792;DHT22;2922;53.482;10.006;2023-05-10T13:38:41;17.40;99.90
5792;DHT22;2922;53.482;10.006;2023-05-10T13:41:07;17.50;99.90
5792;DHT22;2922;53.482;10.006;2023-05-10T13:43:32;17.50;99.90
5792;DHT22;2922;53.482;10.006;2023-05-10T13:45:58;17.60;99.90
5792;DHT22;2922;53.482;10.006;2023-05-10T13:48:24;17.60;99.90
5792;DHT22;2922;53.482;10.006;2023-05-10T13:50:49;17.80;99.90
5792;DHT22;2922;53.482;10.006;2023-05-10T13:53:15;17.80;99.90
5792;DHT22;2922;53.482;10.006;2023-05-10T13:55:41;18.00;99.90
5792;DHT22;2922;53.482;10.006;2023-05-10T13:58:07;18.00;99.90
5792;DHT22;2922;53.482;10.006;2023-05-10T14:00:32;18.00;99.90
5792;DHT22;2922;53.482;10.006;2023-05-10T14:02:58;18.10;99.90
5792;DHT22;2922;53.482;10.006;2023-05-10T14:05:23;18.10;99.90
5792;DHT22;2922;53.482;10.006;2023-05-10T14:07:50;18.20;99.90
5792;DHT22;2922;53.482;10.006;2023-05-10T14:10:16;18.20;99.90
5792;DHT22;2922;53.482;10.006;2023-05-10T14:12:41;18.30;99.90
5792;DHT22;2922;53.482;10.006;2023-05-10T14:15:07;18.40;99.90
5792;DHT22;2922;53.482;10.006;2023-05-10T14:17:35;18.50;99.90
5792;DHT22;2922;53.482;10.006;2023-05-10T14:20:01;18.50;99.90
5792;DHT22;2922;53.482;10.006;2023-05-10T14:22:27;18.50;99.90
5792;DHT22;2922;53.482;10.006;2023-05-10T14:24:52;18.50;99.90
5792;DHT22;2922;53.482;10.006;2023-05-10T14:27:18;18.60;99.90
5792;DHT22;2922;53.482;10.006;2023-05-10T14:29:44;18.60;99.90
5792;DHT22;2922;53.482;10.006;2023-05-10T14:32:09;18.60;99.90
5792;DHT22;2922;53.482;10.006;2023-05-10T14:34:35;18.60;99.90
5792;DHT22;2922;53.482;10.006;2023-05-10T14:37:00;18.50;99.90
5792;DHT22;2922;53.482;10.006;2023-05-10T14:39:26;18.50;99.90
5792;DHT22;2922;53.482;10.006;2023-05-10T14:41:54;18.50;99.90
5792;DHT22;2922;53.482;10.006;2023-05-10T14:44:20;18.40;99.90
5792;DHT22;2922;53.482;10.006;2023-05-10T14:46:46;18.50;99.90
5792;DHT22;2922;53.482;10.006;2023-05-10T14:49:12;18.50;99.90
5792;DHT22;2922;53.482;10.006;2023-05-10T14:51:38;18.50;99.90
5792;DHT22;2922;53.482;10.006;2023-05-10T14:54:03;18.50;99.90
5792;DHT22;2922;53.482;10.006;2023-05-10T14:56:29;18.60;99.90
5792;DHT22;2922;53.482;10.006;2023-05-10T14:58:54;18.50;99.90
5792;DHT22;2922;53.482;10.006;2023-05-10T15:01:20;18.50;99.90
5792;DHT22;2922;53.482;10.006;2023-05-10T15:03:46;18.60;99.90
5792;DHT22;2922;53.482;10.006;2023-05-10T15:06:14;18.70;99.90
5792;DHT22;2922;53.482;10.006;2023-05-10T15:08:40;18.70;99.90
5792;DHT22;2922;53.482;10.006;2023-05-10T15:11:06;18.80;99.90
5792;DHT22;2922;53.482;10.006;2023-05-10T15:13:31;18.80;99.90
5792;DHT22;2922;53.482;10.006;2023-05-10T15:15:57;18.80;99.90
5792;DHT22;2922;53.482;10.006;2023-05-10T15:18:22;18.70;99.90
5792;DHT22;2922;53.482;10.006;2023-05-10T15:20:48;18.60;99.90
5792;DHT22;2922;53.482;10.006;2023-05-10T15:23:14;18.50;99.90
5792;DHT22;2922;53.482;10.006;2023-05-10T15:25:39;18.60;99.90
5792;DHT22;2922;53.482;10.006;2023-05-10T15:28:05;18.70;99.90
5792;DHT22;2922;53.482;10.006;2023-05-10T15:30:30;18.70;99.90
5792;DHT22;2922;53.482;10.006;2023-05-10T15:32:56;18.70;99.90
5792;DHT22;2922;53.482;10.006;2023-05-10T15:35:22;18.60;99.90
5792;DHT22;2922;53.482;10.006;2023-05-10T15:37:48;18.50;99.90
5792;DHT22;2922;53.482;10.006;2023-05-10T15:40:15;18.30;99.90
5792;DHT22;2922;53.482;10.006;2023-05-10T15:42:40;18.30;99.90
5792;DHT22;2922;53.482;10.006;2023-05-10T15:45:06;18.30;99.90
5792;DHT22;2922;53.482;10.006;2023-05-10T15:47:32;18.10;99.90
5792;DHT22;2922;53.482;10.006;2023-05-10T15:49:58;18.00;99.90
5792;DHT22;2922;53.482;10.006;2023-05-10T15:52:24;17.90;99.90
5792;DHT22;2922;53.482;10.006;2023-05-10T15:54:49;17.80;99.90
5792;DHT22;2922;53.482;10.006;2023-05-10T15:57:15;17.60;99.90
5792;DHT22;2922;53.482;10.006;2023-05-10T15:59:41;17.50;99.90
5792;DHT22;2922;53.482;10.006;2023-05-10T16:02:08;17.40;99.90
5792;DHT22;2922;53.482;10.006;2023-05-10T16:04:35;17.40;99.90
5792;DHT22;2922;53.482;10.006;2023-05-10T16:07:01;17.30;99.90
5792;DHT22;2922;53.482;10.006;2023-05-10T16:09:27;17.20;99.90
5792;DHT22;2922;53.482;10.006;2023-05-10T16:11:52;17.10;99.90
5792;DHT22;2922;53.482;10.006;2023-05-10T16:14:18;17.00;99.90
5792;DHT22;2922;53.482;10.006;2023-05-10T16:16:47;17.00;99.90
5792;DHT22;2922;53.482;10.006;2023-05-10T16:19:13;17.00;99.90